Time;durP1;ratioP1;P1;durP2;ratioP2;P2;SDS_P1;SDS_P2;PMS_P1;PMS_P2;Temp;Humidity;BMP_temperature;BMP_pressure;BME280_temperature;BME280_humidity;BME280_pressure;Samples;Min_cycle;Max_cycle;Signal;HPM_P1;HPM_P2
2022/10/07 00:00:51;;;;;;;10.13;3.60;;;;;;;13.81;53.92;102709.41;4980804;28;123940;-73
2022/10/07 00:03:20;;;;;;;14.32;3.70;;;;;;;13.80;54.15;102707.63;4980741;28;114531;-73
2022/10/07 00:05:59;;;;;;;11.52;3.70;;;;;;;13.79;53.90;102705.91;4978839;28;114325;-73
2022/10/07 00:08:26;;;;;;;13.02;3.33;;;;;;;13.78;54.01;102706.81;4974270;28;124179;-73
2022/10/07 00:10:53;;;;;;;12.20;3.50;;;;;;;13.77;53.86;102697.09;4973140;28;124145;-73
2022/10/07 00:13:20;;;;;;;13.27;3.97;;;;;;;13.76;54.08;102700.66;4970430;28;115948;-73
2022/10/07 00:15:47;;;;;;;15.07;3.67;;;;;;;13.74;54.25;102691.84;4970134;28;115135;-73
2022/10/07 00:18:14;;;;;;;10.77;3.42;;;;;;;13.73;54.13;102690.13;4970130;28;124318;-73
2022/10/07 00:20:41;;;;;;;14.40;3.80;;;;;;;13.72;54.17;102688.34;4970090;28;124364;-73
2022/10/07 00:23:08;;;;;;;13.40;3.88;;;;;;;13.70;54.25;102684.84;4949483;28;115174;-73
2022/10/07 00:25:39;;;;;;;12.30;3.88;;;;;;;13.71;54.26;102689.28;4951076;28;113990;-73
2022/10/07 00:28:06;;;;;;;13.23;3.70;;;;;;;13.69;54.36;102682.22;4968767;28;124310;-73
2022/10/07 00:30:33;;;;;;;14.38;3.75;;;;;;;13.67;54.36;102679.63;4948580;28;122761;-73
2022/10/07 00:33:00;;;;;;;14.35;3.42;;;;;;;13.66;54.36;102672.56;4950691;28;113392;-73
2022/10/07 00:35:27;;;;;;;11.27;3.80;;;;;;;13.65;54.34;102681.44;4968553;28;114986;-72
2022/10/07 00:37:54;;;;;;;12.50;3.50;;;;;;;13.64;54.43;102679.72;4951868;28;124431;-73
2022/10/07 00:40:21;;;;;;;11.52;3.72;;;;;;;13.62;54.43;102670.91;4951706;28;123963;-73
2022/10/07 00:42:48;;;;;;;15.73;4.05;;;;;;;13.60;54.49;102672.75;4972655;28;114464;-73
2022/10/07 00:45:18;;;;;;;15.27;3.95;;;;;;;13.58;54.55;102663.91;4953375;28;114344;-73
2022/10/07 00:47:48;;;;;;;14.25;3.88;;;;;;;13.56;54.56;102660.41;4971581;28;123968;-73
2022/10/07 00:50:24;;;;;;;13.32;4.10;;;;;;;13.54;54.54;102667.56;4970785;28;124903;-73
2022/10/07 00:52:57;;;;;;;10.15;3.67;;;;;;;13.53;54.66;102668.50;4954051;28;113122;-73
2022/10/07 00:55:27;;;;;;;13.63;3.83;;;;;;;13.51;54.63;102657.03;4968295;28;114234;-73
2022/10/07 00:58:01;;;;;;;12.43;3.78;;;;;;;13.51;54.74;102662.34;4970313;28;124317;-72
2022/10/07 01:00:30;;;;;;;12.35;4.05;;;;;;;13.48;54.64;102651.78;4952932;28;122937;-73
2022/10/07 01:02:57;;;;;;;17.15;4.30;;;;;;;13.46;54.68;102649.16;4969971;28;115408;-73
2022/10/07 01:05:24;;;;;;;17.17;3.65;;;;;;;13.43;54.80;102650.13;4970105;28;114763;-73
2022/10/07 01:07:52;;;;;;;10.52;3.60;;;;;;;13.39;54.77;102643.16;4952775;28;123168;-72
2022/10/07 01:10:35;;;;;;;15.43;4.05;;;;;;;13.38;54.83;102641.38;4970775;28;123996;-73
2022/10/07 01:13:31;;;;;;;12.35;3.60;;;;;;;13.34;54.92;102639.72;4950550;28;114553;-72
2022/10/07 01:16:15;;;;;;;13.73;3.83;;;;;;;13.32;54.87;102638.91;4958417;28;113613;-73
2022/10/07 01:19:05;;;;;;;13.68;4.20;;;;;;;13.31;55.27;102628.28;4953359;28;123684;-73
2022/10/07 01:22:07;;;;;;;14.85;3.75;;;;;;;13.29;55.04;102630.97;4965314;28;123250;-73
2022/10/07 01:24:40;;;;;;;18.58;3.88;;;;;;;13.28;54.99;102629.22;4950844;28;113806;-73
2022/10/07 01:27:17;;;;;;;7.57;3.60;;;;;;;13.26;55.19;102625.75;4970508;28;114445;-73
2022/10/07 01:29:54;;;;;;;8.65;3.35;;;;;;;13.26;55.01;102625.75;4969309;28;124148;-74
2022/10/07 01:32:31;;;;;;;12.43;3.92;;;;;;;13.24;55.02;102616.91;4953288;28;123081;-73
2022/10/07 01:35:04;;;;;;;14.02;3.78;;;;;;;13.23;55.15;102609.84;4952736;28;113445;-73
2022/10/07 01:37:36;;;;;;;15.98;4.10;;;;;;;13.21;55.34;102606.38;4952307;28;113002;-73
2022/10/07 01:40:11;;;;;;;13.75;3.88;;;;;;;13.19;55.41;102602.88;4950894;28;124477;-73
2022/10/07 01:42:38;;;;;;;;;;;;;;;13.15;54.84;102595.91;4969537;28;123474;-73
2022/10/07 01:45:11;;;;;;;14.00;3.67;;;;;;;13.15;55.04;102595.91;4952675;28;113842;-73
2022/10/07 01:47:39;;;;;;;13.65;3.83;;;;;;;13.13;55.07;102592.38;4928848;28;113555;-73
2022/10/07 01:50:15;;;;;;;16.70;3.90;;;;;;;13.10;55.39;102592.47;4950846;28;124097;-73
2022/10/07 01:52:50;;;;;;;11.95;3.47;;;;;;;13.08;55.33;102586.34;4952738;28;123902;-73
2022/10/07 01:55:30;;;;;;;13.93;4.40;;;;;;;13.04;55.39;102594.38;4968403;28;115488;-73
2022/10/07 01:58:38;;;;;;;14.10;4.18;;;;;;;13.00;55.36;102576.78;4952511;28;114167;-73
2022/10/07 02:01:22;;;;;;;12.48;4.07;;;;;;;12.97;55.37;102573.31;4951457;28;123327;-73
2022/10/07 02:04:13;;;;;;;12.68;4.07;;;;;;;12.94;55.30;102566.31;4963088;28;123268;-73
2022/10/07 02:07:05;;;;;;;15.63;3.72;;;;;;;12.93;55.55;102563.69;4955907;28;114017;-73
2022/10/07 02:09:41;;;;;;;21.20;3.67;;;;;;;12.90;55.61;102566.41;4961312;28;113634;-73
2022/10/07 02:12:16;;;;;;;11.13;4.20;;;;;;;12.88;55.73;102555.81;4967178;28;124148;-73
2022/10/07 02:15:02;;;;;;;12.90;3.60;;;;;;;12.85;55.54;102558.59;4967393;28;124455;-73
2022/10/07 02:17:34;;;;;;;13.93;4.40;;;;;;;12.85;55.50;102550.59;4935473;28;113773;-73
2022/10/07 02:20:04;;;;;;;17.80;4.00;;;;;;;12.83;55.82;102547.13;4951334;28;113846;-73
2022/10/07 02:22:33;;;;;;;11.55;3.97;;;;;;;12.82;55.73;102550.66;4949791;28;124166;-73
2022/10/07 02:25:01;;;;;;;14.98;4.22;;;;;;;12.80;55.70;102547.19;4969474;28;124680;-73
2022/10/07 02:27:35;;;;;;;11.27;3.42;;;;;;;12.79;56.01;102550.75;4952265;28;113688;-73
2022/10/07 02:30:08;;;;;;;13.38;4.18;;;;;;;12.79;55.96;102545.44;4949908;28;113161;-73
2022/10/07 02:32:39;;;;;;;11.57;3.90;;;;;;;12.77;56.03;102537.53;4951491;28;123355;-73
2022/10/07 02:35:24;;;;;;;14.38;4.32;;;;;;;12.77;56.09;102536.63;4951308;28;123527;-73
2022/10/07 02:37:54;;;;;;;14.55;3.90;;;;;;;12.77;56.08;102531.31;4950851;28;113874;-73
2022/10/07 02:40:27;;;;;;;16.67;4.00;;;;;;;12.78;56.25;102533.06;4950047;28;113715;-74
2022/10/07 02:43:06;;;;;;;8.75;3.58;;;;;;;12.77;56.28;102536.63;4951002;28;123405;-73
2022/10/07 02:46:00;;;;;;;11.98;3.85;;;;;;;12.77;56.09;102531.31;4968317;28;125551;-73
2022/10/07 02:48:34;;;;;;;14.23;3.35;;;;;;;12.75;56.14;102519.84;4944239;28;115691;-72
2022/10/07 02:51:07;;;;;;;14.68;3.90;;;;;;;12.73;56.12;102524.34;4950538;28;114551;-73
2022/10/07 02:53:36;;;;;;;11.02;3.85;;;;;;;12.72;56.16;102523.47;4967559;28;123010;-72
2022/10/07 02:56:05;;;;;;;10.98;3.75;;;;;;;12.71;56.16;102516.38;4950880;28;123604;-73
2022/10/07 02:58:34;;;;;;;11.15;4.20;;;;;;;12.67;56.41;102509.41;4968873;28;114782;-72
2022/10/07 03:01:04;;;;;;;16.20;4.15;;;;;;;12.69;56.42;102512.03;4949733;28;113075;-73
2022/10/07 03:03:31;;;;;;;12.55;4.25;;;;;;;12.65;56.37;102517.44;4949886;28;123770;-73
2022/10/07 03:06:03;;;;;;;15.18;4.05;;;;;;;12.65;56.35;102509.44;4948594;28;124544;-73
2022/10/07 03:08:31;;;;;;;13.85;4.15;;;;;;;12.64;56.43;102510.38;4951564;28;113765;-73
2022/10/07 03:11:00;;;;;;;10.73;3.90;;;;;;;12.63;56.39;102508.63;4951552;28;113929;-73
2022/10/07 03:13:28;;;;;;;15.32;4.00;;;;;;;12.62;56.27;102506.91;4950058;28;123373;-73
2022/10/07 03:15:58;;;;;;;13.75;4.00;;;;;;;12.61;56.30;102501.63;4967041;28;124378;-73
2022/10/07 03:18:28;;;;;;;16.48;4.00;;;;;;;12.60;56.48;102492.78;4951043;28;113342;-73
2022/10/07 03:21:21;;;;;;;12.63;4.00;;;;;;;12.57;56.33;102492.84;4965250;28;114268;-73
2022/10/07 03:23:52;;;;;;;12.30;3.85;;;;;;;12.55;56.41;102493.81;4949715;28;124092;-73
2022/10/07 03:26:22;;;;;;;12.90;3.83;;;;;;;12.52;56.44;102489.44;4950537;28;122977;-73
2022/10/07 03:28:49;;;;;;;13.50;4.00;;;;;;;12.50;56.62;102490.41;4949892;28;113362;-73
2022/10/07 03:31:18;;;;;;;16.88;4.28;;;;;;;12.47;56.78;102483.41;4951850;28;113051;-73
2022/10/07 03:33:48;;;;;;;13.65;4.20;;;;;;;12.46;56.78;102484.28;4950523;28;123699;-73
2022/10/07 03:36:16;;;;;;;11.88;4.30;;;;;;;12.46;56.73;102478.97;4950418;28;123470;-73
2022/10/07 03:38:46;;;;;;;12.98;3.80;;;;;;;12.46;56.64;102478.97;4950025;28;114825;-73
2022/10/07 03:41:14;;;;;;;13.57;4.05;;;;;;;12.45;56.99;102477.22;4968699;28;114881;-73
2022/10/07 03:43:41;;;;;;;13.43;3.90;;;;;;;12.44;56.83;102475.50;4950638;28;123654;-73
2022/10/07 03:46:10;;;;;;;14.05;4.05;;;;;;;12.43;56.55;102468.41;4950697;28;123782;-73
2022/10/07 03:48:38;;;;;;;15.13;4.20;;;;;;;12.42;56.62;102461.38;4951377;28;115326;-73
2022/10/07 03:51:06;;;;;;;16.38;4.50;;;;;;;12.40;56.78;102463.22;4967794;28;113893;-73
2022/10/07 03:53:37;;;;;;;16.10;4.55;;;;;;;12.34;56.79;102458.94;4949110;28;123527;-73
2022/10/07 03:56:06;;;;;;;11.32;4.47;;;;;;;12.34;56.90;102458.94;4950551;28;122212;-73
2022/10/07 03:58:34;;;;;;;12.35;4.30;;;;;;;12.31;56.60;102459.00;4950140;28;113532;-73
2022/10/07 04:01:09;;;;;;;13.45;4.13;;;;;;;12.26;56.82;102456.47;4950215;28;113359;-73
2022/10/07 04:03:41;;;;;;;13.35;4.50;;;;;;;12.23;56.81;102451.22;4949843;28;124362;-73
2022/10/07 04:06:08;;;;;;;16.17;3.88;;;;;;;12.24;56.75;102452.09;4947945;28;122980;-74
2022/10/07 04:08:36;;;;;;;12.13;3.83;;;;;;;12.22;56.92;102460.13;4946858;28;113526;-73
2022/10/07 04:11:04;;;;;;;14.35;4.22;;;;;;;12.21;56.81;102463.69;4966942;28;113073;-73
2022/10/07 04:13:33;;;;;;;13.05;3.90;;;;;;;12.20;56.81;102461.94;4949941;28;124288;-73
2022/10/07 04:16:10;;;;;;;15.85;4.53;;;;;;;12.18;56.97;102453.13;4953372;28;123553;-73
2022/10/07 04:18:37;;;;;;;13.77;4.07;;;;;;;12.16;56.77;102460.25;4951286;28;113555;-73
2022/10/07 04:21:07;;;;;;;13.57;5.10;;;;;;;12.14;56.81;102462.09;4957392;28;112837;-73
2022/10/07 04:23:35;;;;;;;11.15;4.40;;;;;;;12.12;56.79;102458.59;4953919;28;124013;-74
2022/10/07 04:26:11;;;;;;;16.08;4.40;;;;;;;12.10;56.79;102452.47;4953808;28;123645;-73
2022/10/07 04:28:42;;;;;;;10.98;3.45;;;;;;;12.08;56.74;102451.63;4943757;28;114136;-73
2022/10/07 04:31:12;;;;;;;13.15;4.25;;;;;;;12.06;56.90;102449.00;4954041;28;114321;-73
2022/10/07 04:33:43;;;;;;;16.17;3.60;;;;;;;12.05;56.96;102451.69;4935666;28;123315;-73
2022/10/07 04:36:12;;;;;;;14.52;4.30;;;;;;;12.04;57.12;102449.97;4952869;28;123345;-72
2022/10/07 04:38:49;;;;;;;15.30;4.22;;;;;;;12.03;57.32;102448.22;4953462;28;112052;-73
2022/10/07 04:41:18;;;;;;;17.77;4.30;;;;;;;12.03;57.28;102448.22;4933848;28;113794;-73
2022/10/07 04:43:49;;;;;;;14.13;4.30;;;;;;;12.01;57.18;102442.06;4953049;28;123426;-73
2022/10/07 04:46:22;;;;;;;16.85;4.35;;;;;;;12.00;57.32;102437.69;4951539;28;124540;-73
2022/10/07 04:48:56;;;;;;;17.13;4.43;;;;;;;12.00;57.24;102432.38;4953197;28;114442;-73
2022/10/07 04:51:25;;;;;;;19.27;4.20;;;;;;;12.00;57.50;102437.69;4953067;28;113472;-73
2022/10/07 04:53:56;;;;;;;14.50;4.15;;;;;;;11.99;57.34;102435.94;4953077;28;124658;-73
2022/10/07 04:56:30;;;;;;;16.02;4.30;;;;;;;12.00;57.53;102432.38;4952396;28;123232;-73
2022/10/07 04:58:58;;;;;;;13.13;4.20;;;;;;;12.03;57.52;102437.59;4950156;28;113488;-73
2022/10/07 05:01:25;;;;;;;12.93;4.07;;;;;;;12.02;57.63;102425.25;4939571;28;113234;-73
2022/10/07 05:03:53;;;;;;;13.77;4.15;;;;;;;12.03;57.73;102426.97;4953214;28;124000;-73
2022/10/07 05:06:21;;;;;;;13.45;4.82;;;;;;;12.04;57.70;102434.91;4952732;28;123851;-73
2022/10/07 05:08:48;;;;;;;14.20;4.22;;;;;;;12.05;57.64;102425.13;4953212;28;113608;-73
2022/10/07 05:11:15;;;;;;;19.08;4.55;;;;;;;12.06;57.77;102426.91;4952957;28;114796;-73
2022/10/07 05:13:51;;;;;;;18.58;4.68;;;;;;;12.06;57.66;102421.59;4952412;28;122558;-73
2022/10/07 05:16:19;;;;;;;18.15;4.65;;;;;;;12.06;57.63;102424.25;4950628;28;123373;-73
2022/10/07 05:18:47;;;;;;;12.90;3.67;;;;;;;12.06;57.78;102427.75;4935551;28;114900;-73
2022/10/07 05:21:15;;;;;;;20.20;4.47;;;;;;;12.07;57.71;102423.31;4953176;28;114429;-73
2022/10/07 05:23:45;;;;;;;14.45;4.35;;;;;;;12.07;57.59;102418.00;4952976;28;123279;-73
2022/10/07 05:26:16;;;;;;;20.67;5.07;;;;;;;12.07;57.73;102423.31;4952866;28;122636;-73
2022/10/07 05:28:48;;;;;;;18.50;4.30;;;;;;;12.08;57.64;102419.75;4951564;28;114133;-73
2022/10/07 05:31:21;;;;;;;15.32;4.38;;;;;;;12.08;57.83;102425.06;4950338;28;115056;-73
2022/10/07 05:33:52;;;;;;;13.10;4.57;;;;;;;12.08;57.90;102419.75;4951997;28;123786;-73
2022/10/07 05:36:22;;;;;;;17.42;4.90;;;;;;;12.08;57.79;102415.31;4951702;28;122264;-73
2022/10/07 05:38:56;;;;;;;12.73;4.20;;;;;;;12.08;57.91;102414.44;4968043;28;113416;-73
2022/10/07 05:41:27;;;;;;;12.95;4.57;;;;;;;12.08;57.90;102409.13;4952281;28;113272;-73
2022/10/07 05:43:55;;;;;;;13.95;4.20;;;;;;;12.10;58.10;102414.41;4950346;28;124152;-73
2022/10/07 05:46:23;;;;;;;12.40;4.40;;;;;;;12.09;57.98;102405.56;4950296;28;123409;-73
2022/10/07 05:48:54;;;;;;;14.07;4.13;;;;;;;12.10;57.77;102406.44;4951508;28;113887;-73
2022/10/07 05:51:25;;;;;;;12.70;4.40;;;;;;;12.10;58.00;102407.31;4967800;28;112450;-73
2022/10/07 05:53:55;;;;;;;15.20;4.40;;;;;;;12.09;58.05;102405.56;4951798;28;123694;-73
2022/10/07 05:56:28;;;;;;;13.52;4.03;;;;;;;12.10;57.99;102406.44;4951710;28;123403;-73
2022/10/07 05:58:58;;;;;;;16.38;4.57;;;;;;;12.10;58.11;102402.00;4949531;28;113924;-74
2022/10/07 06:01:28;;;;;;;14.27;4.15;;;;;;;12.10;58.10;102404.66;4953059;28;113222;-73
2022/10/07 06:03:58;;;;;;;13.20;3.58;;;;;;;12.11;57.98;102403.75;4950851;28;122910;-74
2022/10/07 06:06:29;;;;;;;19.55;3.95;;;;;;;12.11;57.92;102393.13;4952611;28;123408;-73
2022/10/07 06:13:06;;;;;;;15.25;3.95;;;;;;;12.10;58.01;102386.06;4950418;28;114348;-74
2022/10/07 06:14:33;;;;;;;16.50;4.20;;;;;;;12.10;57.76;102391.38;4951715;28;124313;-73
2022/10/07 06:17:00;;;;;;;12.13;4.22;;;;;;;12.11;57.95;102387.81;4933392;28;123374;-73
2022/10/07 06:19:28;;;;;;;15.38;3.97;;;;;;;12.10;57.96;102396.69;4952589;28;113513;-73
2022/10/07 06:21:59;;;;;;;14.95;4.25;;;;;;;12.10;58.27;102386.06;4952759;28;113810;-73
2022/10/07 06:24:26;;;;;;;13.65;4.00;;;;;;;12.11;58.13;102387.81;4961812;28;123581;-73
2022/10/07 06:26:54;;;;;;;15.75;3.65;;;;;;;12.13;58.15;102393.97;4969890;28;124373;-73
2022/10/07 06:29:22;;;;;;;13.10;3.80;;;;;;;12.15;58.29;102384.16;4951790;28;113536;-73
2022/10/07 06:31:50;;;;;;;13.55;3.40;;;;;;;12.17;58.42;102381.47;4952840;28;113536;-73
2022/10/07 06:34:18;;;;;;;11.25;3.58;;;;;;;12.21;58.57;102384.00;4949072;28;123409;-74
2022/10/07 06:36:45;;;;;;;12.05;3.80;;;;;;;12.25;58.71;102385.66;4951231;28;123184;-73
2022/10/07 06:39:16;;;;;;;12.73;3.22;;;;;;;12.31;58.84;102383.75;4968822;28;114221;-73
2022/10/07 06:41:45;;;;;;;13.43;3.90;;;;;;;12.38;58.87;102395.94;4952262;28;113752;-74
2022/10/07 06:44:27;;;;;;;13.00;3.28;;;;;;;12.46;58.75;102388.63;4951425;28;124269;-74
2022/10/07 06:46:55;;;;;;;12.63;3.85;;;;;;;12.53;58.75;102386.69;4937236;28;123554;-73
2022/10/07 06:49:22;;;;;;;17.00;3.45;;;;;;;12.61;59.00;102382.00;4950416;28;115015;-73
2022/10/07 06:51:50;;;;;;;12.18;3.25;;;;;;;12.71;58.79;102390.59;4953036;28;112985;-74
2022/10/07 06:54:18;;;;;;;14.75;3.30;;;;;;;12.81;58.72;102389.41;4948873;28;124314;-73
2022/10/07 06:56:45;;;;;;;12.25;3.45;;;;;;;12.88;58.66;102390.94;4968516;28;123977;-74
2022/10/07 06:59:12;;;;;;;11.38;3.58;;;;;;;12.94;58.44;102385.47;4969395;28;114570;-73
2022/10/07 07:01:47;;;;;;;12.70;2.92;;;;;;;13.02;58.45;102378.13;4934252;28;114428;-73
2022/10/07 07:04:14;;;;;;;11.60;3.40;;;;;;;13.10;58.54;102382.34;4949102;28;123696;-74
2022/10/07 07:06:41;;;;;;;12.40;3.65;;;;;;;13.14;58.33;102387.50;4951826;28;122769;-73
2022/10/07 07:09:09;;;;;;;10.35;3.35;;;;;;;13.21;58.43;102382.88;4952246;28;113582;-74
2022/10/07 07:11:42;;;;;;;10.55;3.53;;;;;;;13.25;58.27;102388.03;4935672;28;113876;-73
2022/10/07 07:14:20;;;;;;;10.38;3.05;;;;;;;13.33;58.21;102387.81;4952471;28;123701;-73
2022/10/07 07:17:02;;;;;;;14.70;3.40;;;;;;;13.41;58.17;102391.13;4952495;28;124704;-73
2022/10/07 07:19:30;;;;;;;14.02;2.95;;;;;;;13.48;58.13;102380.28;4952184;28;113882;-73
2022/10/07 07:21:57;;;;;;;12.90;3.25;;;;;;;13.55;58.02;102381.81;4952341;28;113626;-73
2022/10/07 07:24:26;;;;;;;12.35;3.35;;;;;;;13.61;57.91;102386.94;4968904;28;124625;-74
2022/10/07 07:26:53;;;;;;;10.77;2.70;;;;;;;13.67;57.97;102381.41;4951726;28;123344;-73
2022/10/07 07:29:23;;;;;;;11.95;3.13;;;;;;;13.74;57.94;102388.25;4952043;28;113707;-73
2022/10/07 07:31:54;;;;;;;16.23;3.60;;;;;;;13.82;58.15;102386.25;4933736;28;113196;-73
2022/10/07 07:34:24;;;;;;;14.35;3.42;;;;;;;13.89;57.74;102391.34;4966442;28;122527;-73
2022/10/07 07:36:51;;;;;;;10.50;3.25;;;;;;;13.95;57.66;102392.00;4969855;28;124009;-74
2022/10/07 07:39:22;;;;;;;11.80;3.35;;;;;;;14.03;57.82;102394.38;4936015;28;113616;-74
2022/10/07 07:41:55;;;;;;;10.57;3.00;;;;;;;14.10;57.71;102390.59;4956745;28;113301;-74
2022/10/07 07:44:23;;;;;;;13.20;3.33;;;;;;;14.15;57.36;102387.78;4950069;28;123220;-73
2022/10/07 07:46:54;;;;;;;11.15;3.42;;;;;;;14.20;57.46;102392.03;4954338;28;123369;-74
2022/10/07 07:49:23;;;;;;;12.75;3.30;;;;;;;14.25;57.43;102380.31;4973326;28;114039;-74
2022/10/07 07:51:51;;;;;;;12.35;3.33;;;;;;;14.31;57.35;102380.09;4955256;28;113106;-73
2022/10/07 07:54:26;;;;;;;12.77;3.08;;;;;;;14.37;57.62;102387.88;4961246;28;123220;-73
2022/10/07 07:56:54;;;;;;;13.18;3.45;;;;;;;14.45;57.26;102391.13;4969871;28;124322;-73
2022/10/07 07:59:24;;;;;;;11.18;3.08;;;;;;;14.51;57.31;102384.72;4952542;28;113800;-73
2022/10/07 08:01:54;;;;;;;10.27;3.17;;;;;;;14.58;57.21;102380.94;4939897;28;113599;-73
2022/10/07 08:04:22;;;;;;;10.63;2.88;;;;;;;14.66;57.16;102383.31;4952048;28;123414;-73
2022/10/07 08:06:50;;;;;;;11.25;3.22;;;;;;;14.73;57.22;102374.13;4952148;28;123683;-73
2022/10/07 08:09:18;;;;;;;12.70;3.20;;;;;;;14.80;57.17;102375.63;4951944;28;113704;-74
2022/10/07 08:11:47;;;;;;;15.52;3.30;;;;;;;14.88;57.09;102373.56;4949446;28;113451;-73
2022/10/07 08:14:16;;;;;;;14.20;3.17;;;;;;;14.94;56.92;102370.66;4951048;28;122849;-73
2022/10/07 08:16:46;;;;;;;15.30;3.22;;;;;;;15.02;56.93;102373.00;4932743;28;123621;-73
2022/10/07 08:19:14;;;;;;;13.00;2.88;;;;;;;15.09;56.83;102365.66;4969799;28;114066;-74
2022/10/07 08:21:41;;;;;;;9.88;2.83;;;;;;;15.17;56.74;102368.88;4969398;28;114689;-73
2022/10/07 08:24:13;;;;;;;11.35;2.75;;;;;;;15.27;56.65;102372.03;4933191;28;125126;-73
2022/10/07 08:26:40;;;;;;;13.25;3.17;;;;;;;15.37;56.58;102360.94;4962537;28;124587;-73
2022/10/07 08:29:12;;;;;;;14.30;3.03;;;;;;;15.49;56.63;102364.03;4950584;28;114976;-73
2022/10/07 08:31:41;;;;;;;11.38;3.22;;;;;;;15.61;56.70;102357.31;4952657;28;113437;-73
2022/10/07 08:34:09;;;;;;;10.38;2.60;;;;;;;15.74;56.60;102362.09;4955775;28;123684;-73
2022/10/07 08:36:37;;;;;;;12.45;2.97;;;;;;;15.88;56.44;102360.63;4951597;28;123903;-73
2022/10/07 08:39:05;;;;;;;12.57;2.70;;;;;;;15.97;55.97;102349.53;4968777;28;115227;-73
2022/10/07 08:41:44;;;;;;;10.25;2.95;;;;;;;16.08;55.63;102351.75;4969247;28;114923;-73
2022/10/07 08:44:19;;;;;;;14.73;2.88;;;;;;;16.18;55.39;102346.84;4966091;28;123719;-73
2022/10/07 08:46:59;;;;;;;11.15;2.63;;;;;;;16.26;55.44;102342.06;4955763;28;124138;-73
2022/10/07 08:49:59;;;;;;;13.82;2.60;;;;;;;16.34;55.28;102354.13;4948574;28;114577;-73
2022/10/07 08:52:38;;;;;;;9.48;2.80;;;;;;;16.45;55.10;102345.63;4967816;28;114335;-74
2022/10/07 08:55:30;;;;;;;11.63;2.92;;;;;;;16.54;54.92;102339.84;4965519;28;124412;-73
2022/10/07 08:58:10;;;;;;;9.18;2.75;;;;;;;16.65;54.72;102341.16;4968609;28;124162;-73
2022/10/07 09:00:48;;;;;;;15.30;2.80;;;;;;;16.76;54.69;102333.47;4954261;28;114642;-73
2022/10/07 09:03:30;;;;;;;11.35;2.88;;;;;;;16.85;54.62;102325.06;4971766;28;114265;-73
2022/10/07 09:05:59;;;;;;;10.05;2.60;;;;;;;16.96;54.56;102326.38;4968614;28;124122;-74
2022/10/07 09:08:39;;;;;;;11.30;2.72;;;;;;;17.07;54.72;102310.66;4971307;28;124073;-73
2022/10/07 09:11:15;;;;;;;12.18;2.85;;;;;;;17.21;54.62;102318.84;4977116;28;115347;-73
2022/10/07 09:13:49;;;;;;;17.08;3.03;;;;;;;17.38;54.31;102314.47;4966138;28;113575;-74
2022/10/07 09:16:24;;;;;;;8.23;2.35;;;;;;;17.50;54.09;102319.22;4956075;28;123703;-73
2022/10/07 09:18:58;;;;;;;10.90;2.40;;;;;;;17.63;53.96;102309.63;4969290;28;124311;-74
2022/10/07 09:22:18;;;;;;;14.32;2.65;;;;;;;17.77;53.84;102306.22;4958711;28;114332;-73
2022/10/07 09:24:47;;;;;;;8.75;2.22;;;;;;;17.89;53.45;102304.72;4909040;28;114231;-74
2022/10/07 09:27:17;;;;;;;11.98;2.28;;;;;;;17.97;53.25;102302.53;4910125;28;123830;-74
2022/10/07 09:29:45;;;;;;;9.15;2.30;;;;;;;18.05;52.93;102302.97;4946684;28;124035;-73
2022/10/07 09:32:16;;;;;;;10.90;2.08;;;;;;;18.13;52.49;102304.38;4936451;28;115384;-74
2022/10/07 09:34:44;;;;;;;11.65;2.42;;;;;;;18.19;52.57;102301.38;4976315;28;115408;-73
2022/10/07 09:37:15;;;;;;;9.18;2.15;;;;;;;18.26;52.45;102297.41;4969215;28;123944;-74
2022/10/07 09:39:44;;;;;;;11.00;2.40;;;;;;;18.34;52.22;102292.47;4973768;28;124079;-73
2022/10/07 09:42:32;;;;;;;9.88;2.55;;;;;;;18.42;52.26;102292.06;4958716;28;114756;-73
2022/10/07 09:45:04;;;;;;;14.10;2.53;;;;;;;18.51;51.73;102293.38;4970836;28;113641;-72
2022/10/07 09:47:39;;;;;;;9.15;2.25;;;;;;;18.59;51.62;102288.44;4953041;28;123625;-73
2022/10/07 09:50:31;;;;;;;11.90;2.67;;;;;;;18.67;51.64;102291.59;4971132;28;125010;-73
2022/10/07 09:53:00;;;;;;;8.90;2.00;;;;;;;18.75;51.33;102278.59;4968972;28;114780;-73
2022/10/07 09:55:36;;;;;;;11.70;2.55;;;;;;;18.80;51.02;102276.53;4970422;28;113709;-73
2022/10/07 09:58:14;;;;;;;13.82;2.50;;;;;;;18.84;50.98;102277.25;4955911;28;124006;-74
2022/10/07 10:00:44;;;;;;;11.13;2.50;;;;;;;18.90;50.51;102276.03;4958089;28;123865;-73
2022/10/07 10:03:11;;;;;;;10.52;2.70;;;;;;;18.92;50.39;102263.38;4953015;28;114198;-75
2022/10/07 10:05:50;;;;;;;15.07;2.58;;;;;;;18.97;50.39;102262.16;4970933;28;114093;-74
2022/10/07 10:08:25;;;;;;;7.78;2.15;;;;;;;18.99;50.19;102257.56;4967642;28;124016;-76
2022/10/07 10:10:58;;;;;;;10.43;2.08;;;;;;;19.03;50.06;102266.31;4952061;28;122520;-78
2022/10/07 10:13:37;;;;;;;13.43;2.40;;;;;;;19.07;50.28;102257.09;4966023;28;114425;-76
2022/10/07 10:16:26;;;;;;;10.38;2.88;;;;;;;19.15;50.38;102259.34;4953017;28;113973;-76
2022/10/07 10:18:54;;;;;;;11.20;2.05;;;;;;;19.24;50.17;102259.66;4964799;28;126126;-76
2022/10/07 10:21:29;;;;;;;14.10;2.15;;;;;;;19.34;50.04;102253.75;4967486;28;124606;-75
2022/10/07 10:24:04;;;;;;;7.82;2.00;;;;;;;19.43;50.11;102247.81;4961220;28;114999;-75
2022/10/07 10:26:52;;;;;;;10.65;2.22;;;;;;;19.52;49.59;102247.28;4950401;28;114955;-75
2022/10/07 10:29:22;;;;;;;9.75;2.30;;;;;;;19.60;49.37;102234.22;4945268;28;124100;-75
2022/10/07 10:32:20;;;;;;;8.50;2.20;;;;;;;19.67;49.10;102239.25;4949961;28;124372;-75
2022/10/07 10:34:55;;;;;;;10.23;1.85;;;;;;;19.75;49.21;102234.28;4967322;28;114888;-74
2022/10/07 10:37:56;;;;;;;9.35;2.00;;;;;;;19.85;48.98;102227.34;4968727;28;114313;-75
2022/10/07 10:40:38;;;;;;;12.20;2.10;;;;;;;19.93;48.92;102218.81;4949892;28;123206;-75
2022/10/07 10:43:25;;;;;;;7.07;2.00;;;;;;;20.02;48.90;102213.75;4946834;28;124526;-75
2022/10/07 10:45:58;;;;;;;11.20;2.33;;;;;;;20.12;48.56;102215.84;4946549;28;114116;-75
2022/10/07 10:48:28;;;;;;;14.13;2.00;;;;;;;20.17;47.91;102209.22;4967866;28;114626;-75
2022/10/07 10:51:13;;;;;;;8.80;1.67;;;;;;;20.22;47.95;102203.53;4972697;28;124204;-74
2022/10/07 10:53:43;;;;;;;7.78;1.85;;;;;;;20.27;47.35;102206.81;4970731;28;125674;-75
2022/10/07 10:56:26;;;;;;;8.18;1.95;;;;;;;20.31;46.92;102202.94;4951442;28;112429;-76
2022/10/07 10:59:15;;;;;;;9.45;1.95;;;;;;;20.35;47.03;102193.69;4966611;28;113655;-75
2022/10/07 11:01:45;;;;;;;10.07;2.00;;;;;;;20.40;46.52;102191.59;4964783;28;123903;-75
2022/10/07 11:04:21;;;;;;;8.77;1.80;;;;;;;20.46;46.63;102189.47;4969090;28;124267;-76
2022/10/07 11:06:56;;;;;;;9.68;1.90;;;;;;;20.53;46.43;102175.50;4966408;28;114305;-75
2022/10/07 11:09:52;;;;;;;11.65;2.40;;;;;;;20.62;46.64;102174.03;4969081;28;113369;-74
2022/10/07 11:12:26;;;;;;;11.43;1.58;;;;;;;20.67;46.05;102177.28;4968817;28;123748;-75
2022/10/07 11:15:03;;;;;;;5.30;1.70;;;;;;;20.70;46.24;102173.53;4964972;28;123890;-75
2022/10/07 11:17:36;;;;;;;8.73;2.00;;;;;;;20.72;46.00;102169.78;4950453;28;115319;-75
2022/10/07 11:20:26;;;;;;;9.18;1.98;;;;;;;20.78;46.39;102172.06;4966792;28;115615;-75
2022/10/07 11:22:59;;;;;;;11.25;2.22;;;;;;;20.86;45.67;102162.59;4946480;28;124159;-75
2022/10/07 11:25:36;;;;;;;7.85;2.15;;;;;;;20.92;45.61;102159.50;4934181;28;121458;-75
2022/10/07 11:28:14;;;;;;;9.20;2.03;;;;;;;20.96;45.36;102147.53;4937979;28;114832;-75
2022/10/07 11:30:54;;;;;;;9.27;2.00;;;;;;;20.97;45.43;102141.19;4969455;28;114497;-74
2022/10/07 11:33:32;;;;;;;8.70;2.05;;;;;;;21.01;45.59;102137.31;4969680;28;124370;-75
2022/10/07 11:36:07;;;;;;;9.40;2.05;;;;;;;21.09;45.41;102129.56;4964687;28;123873;-75
2022/10/07 11:38:37;;;;;;;8.07;1.70;;;;;;;21.17;45.45;102120.94;4956549;28;114178;-75